Trout Creek, Utah
Current Conditions -  °F | °C
As of 11:55 PM on Sunday 21 Dec 2014 (Local Time) from KENV Reporting Station
Clear Clear  
Wind Chill: 50°   Ceiling: Unl
Heat Index: 50°   Visibility: 10mi
Dew Point: 34°   Wind: 26mph
Humidity: 54%   Direction: 310°NW
Pressure: 30.01"   Gusts: 39mph
Location:  40.2503°N, 113.457°W
Report Text: KENV 220655Z AUTO 31023G34KT 10SM CLR 10/01 A3001 RMK AO1
Loading
Personal Weather Stations






























Interactive Weather Map New forecast layout! Learn more

10-Day Weather Forecast

Advertisements
Track Severe Weather on mobile